createdAt,value
2023-02-19T00:01:38.499Z,100202.68
2023-02-19T00:04:10.376Z,100213.18
2023-02-19T00:06:38.800Z,100223.32
2023-02-19T00:09:07.387Z,100232.95
2023-02-19T00:11:35.859Z,100235.61
2023-02-19T00:14:04.988Z,100240.69
2023-02-19T00:16:37.089Z,100244.63
2023-02-19T00:19:09.001Z,100250.66
2023-02-19T00:21:37.508Z,100250.63
2023-02-19T00:24:08.875Z,100256.68
2023-02-19T00:26:40.042Z,100257.02
2023-02-19T00:29:12.738Z,100259.88
2023-02-19T00:31:44.824Z,100255.66
2023-02-19T00:34:14.487Z,100252.30
2023-02-19T00:36:44.118Z,100239.89
2023-02-19T00:39:18.387Z,100237.66
2023-02-19T00:41:47.214Z,100230.06
2023-02-19T00:44:16.498Z,100228.37
2023-02-19T00:46:48.163Z,100221.02
2023-02-19T00:49:23.428Z,100220.75
2023-02-19T00:51:52.993Z,100227.14
2023-02-19T00:54:22.864Z,100226.58
2023-02-19T00:56:51.800Z,100220.48
2023-02-19T00:59:21.081Z,100214.72
2023-02-19T01:01:49.942Z,100203.39
2023-02-19T01:04:19.069Z,100199.81
2023-02-19T01:06:49.108Z,100202.91
2023-02-19T01:09:17.692Z,100204.26
2023-02-19T01:11:46.342Z,100208.73
2023-02-19T01:14:14.886Z,100213.80
2023-02-19T01:16:43.427Z,100216.88
2023-02-19T01:19:12.249Z,100222.58
2023-02-19T01:21:41.416Z,100225.19
2023-02-19T01:27:42.153Z,100228.63
2023-02-19T01:30:11.441Z,100226.98
2023-02-19T01:32:40.022Z,100232.09
2023-02-19T01:35:08.913Z,100232.34
2023-02-19T01:37:37.509Z,100235.34
2023-02-19T01:40:06.560Z,100242.27
2023-02-19T01:42:34.995Z,100246.38
2023-02-19T01:45:26.934Z,100243.86
2023-02-19T01:48:18.937Z,100245.01
2023-02-19T01:51:00.456Z,100245.27
2023-02-19T01:53:34.411Z,100250.65
2023-02-19T01:56:03.694Z,100259.80
2023-02-19T01:58:35.426Z,100259.02
2023-02-19T02:01:07.571Z,100260.23
2023-02-19T02:03:38.744Z,100259.48
2023-02-19T02:06:43.312Z,100260.84
2023-02-19T02:09:30.802Z,100257.55
2023-02-19T02:11:59.539Z,100253.98
2023-02-19T02:14:32.215Z,100255.95
2023-02-19T02:17:43.861Z,100257.98
2023-02-19T02:20:15.401Z,100261.58
2023-02-19T02:23:17.526Z,100273.17
2023-02-19T02:26:04.124Z,100287.27
2023-02-19T02:28:35.880Z,100307.95
2023-02-19T02:31:19.744Z,100320.69
2023-02-19T02:34:49.714Z,100338.14
2023-02-19T02:37:18.363Z,100362.18
2023-02-19T02:39:47.927Z,100376.69
2023-02-19T02:42:28.192Z,100392.10
2023-02-19T02:45:37.945Z,100401.61
2023-02-19T02:48:28.770Z,100403.87
2023-02-19T02:51:04.670Z,100413.45
2023-02-19T02:54:33.466Z,100413.31
2023-02-19T02:57:04.572Z,100409.14
2023-02-19T02:59:39.835Z,100408.58
2023-02-19T03:02:24.302Z,100408.13
2023-02-19T03:05:43.107Z,100405.55
2023-02-19T03:08:59.257Z,100413.14
2023-02-19T03:11:49.569Z,100420.82
2023-02-19T03:14:55.217Z,100428.05
2023-02-19T03:18:12.494Z,100436.68
2023-02-19T03:20:46.885Z,100430.79
2023-02-19T03:23:18.887Z,100427.06
2023-02-19T03:26:03.482Z,100430.82
2023-02-19T03:29:11.967Z,100438.39
2023-02-19T03:31:44.801Z,100448.34
2023-02-19T03:34:23.042Z,100451.86
2023-02-19T03:37:02.279Z,100448.70
2023-02-19T03:39:30.764Z,100455.80
2023-02-19T03:42:10.787Z,100456.89
2023-02-19T03:45:21.574Z,100460.15
2023-02-19T03:48:27.926Z,100465.05
2023-02-19T03:51:05.753Z,100458.67
2023-02-19T03:53:45.988Z,100454.71
2023-02-19T03:56:30.844Z,100439.90
2023-02-19T03:59:31.085Z,100437.98
2023-02-19T04:02:10.122Z,100434.79
2023-02-19T04:05:01.331Z,100443.73
2023-02-19T04:07:36.955Z,100455.92
2023-02-19T04:10:08.365Z,100465.00
2023-02-19T04:12:44.707Z,100463.94
2023-02-19T04:15:21.165Z,100472.02
2023-02-19T04:18:00.131Z,100472.95
2023-02-19T04:20:34.500Z,100478.27
2023-02-19T04:23:03.648Z,100492.45
2023-02-19T04:25:33.706Z,100490.20
2023-02-19T04:28:03.473Z,100487.35
2023-02-19T04:30:32.038Z,100492.83
2023-02-19T04:33:00.567Z,100502.25
2023-02-19T04:35:29.000Z,100507.42
2023-02-19T04:37:57.962Z,100507.48
2023-02-19T04:40:27.094Z,100511.55
2023-02-19T04:42:55.661Z,100514.73
2023-02-19T04:45:25.169Z,100512.25
2023-02-19T04:47:59.029Z,100522.77
2023-02-19T04:50:28.889Z,100527.94
2023-02-19T04:52:57.585Z,100526.86
2023-02-19T04:55:26.096Z,100524.03
2023-02-19T04:57:54.663Z,100530.93
2023-02-19T05:00:23.229Z,100526.11
2023-02-19T05:02:51.776Z,100523.66
2023-02-19T05:05:20.837Z,100527.67
2023-02-19T05:07:49.947Z,100533.21
2023-02-19T05:10:19.989Z,100540.62
2023-02-19T05:12:48.809Z,100550.98
2023-02-19T05:15:18.639Z,100560.42
2023-02-19T05:17:47.105Z,100567.49
2023-02-19T05:20:15.839Z,100578.51
2023-02-19T05:22:44.411Z,100595.20
2023-02-19T05:25:12.923Z,100600.84
2023-02-19T05:27:41.406Z,100599.58
2023-02-19T05:30:11.683Z,100607.44
2023-02-19T05:32:40.197Z,100620.09
2023-02-19T05:35:08.834Z,100634.17
2023-02-19T05:37:37.415Z,100636.19
2023-02-19T05:40:06.450Z,100643.23
2023-02-19T05:42:37.849Z,100640.61
2023-02-19T05:45:07.987Z,100651.33
2023-02-19T05:47:36.429Z,100654.39
2023-02-19T05:50:07.715Z,100662.01
2023-02-19T05:52:36.230Z,100671.83
2023-02-19T05:55:06.106Z,100674.29
2023-02-19T05:57:43.359Z,100679.08
2023-02-19T06:00:19.500Z,100683.51
2023-02-19T06:02:48.359Z,100693.13
2023-02-19T06:05:20.065Z,100696.63
2023-02-19T06:07:50.698Z,100705.84
2023-02-19T06:10:19.479Z,100713.80
2023-02-19T06:12:47.969Z,100715.92
2023-02-19T06:15:17.414Z,100714.73
2023-02-19T06:17:46.512Z,100706.30
2023-02-19T06:20:15.503Z,100705.55
2023-02-19T06:22:52.334Z,100701.09
2023-02-19T06:25:21.093Z,100698.98
2023-02-19T06:27:49.650Z,100697.90
2023-02-19T06:30:18.385Z,100693.94
2023-02-19T06:33:13.043Z,100701.00
2023-02-19T06:35:42.609Z,100704.77
2023-02-19T06:38:12.649Z,100702.61
2023-02-19T06:40:41.474Z,100703.66
2023-02-19T06:43:10.023Z,100699.60
2023-02-19T06:45:39.047Z,100688.42
2023-02-19T06:48:07.619Z,100675.70
2023-02-19T06:50:36.711Z,100665.69
2023-02-19T06:53:05.369Z,100655.89
2023-02-19T06:55:36.175Z,100646.44
2023-02-19T06:58:04.884Z,100637.97
2023-02-19T07:00:33.966Z,100624.44
2023-02-19T07:03:05.201Z,100627.85
2023-02-19T07:05:36.768Z,100626.62
2023-02-19T07:08:30.865Z,100627.95
2023-02-19T07:11:00.077Z,100634.89
2023-02-19T07:13:29.093Z,100633.77
2023-02-19T07:16:11.833Z,100635.47
2023-02-19T07:18:41.414Z,100637.75
2023-02-19T07:21:14.661Z,100635.91
2023-02-19T07:23:46.825Z,100633.17
2023-02-19T07:37:38.036Z,100651.23
2023-02-19T07:40:07.558Z,100660.16
2023-02-19T07:43:29.976Z,100656.19
2023-02-19T07:45:58.682Z,100654.73
2023-02-19T07:48:33.278Z,100658.62
2023-02-19T07:51:14.014Z,100668.61
2023-02-19T07:53:42.698Z,100666.88
2023-02-19T07:56:13.148Z,100660.14
2023-02-19T07:58:42.037Z,100656.67
2023-02-19T08:01:43.234Z,100648.47
2023-02-19T08:04:45.820Z,100664.69
2023-02-19T08:07:14.326Z,100665.95
2023-02-19T08:09:42.931Z,100667.20
2023-02-19T08:12:30.448Z,100660.35
2023-02-19T08:14:58.920Z,100648.63
2023-02-19T08:17:27.499Z,100643.88
2023-02-19T08:19:56.067Z,100642.77
2023-02-19T08:22:24.677Z,100631.79
2023-02-19T08:24:53.267Z,100629.13
2023-02-19T08:27:21.901Z,100632.75
2023-02-19T08:29:50.464Z,100631.06
2023-02-19T08:32:18.951Z,100628.32
2023-02-19T08:34:47.481Z,100624.85
2023-02-19T08:37:15.919Z,100629.54
2023-02-19T08:39:44.379Z,100636.04
2023-02-19T08:42:12.912Z,100649.66
2023-02-19T08:44:41.389Z,100653.05
2023-02-19T08:47:09.753Z,100658.67
2023-02-19T08:49:38.202Z,100665.14
2023-02-19T08:52:06.695Z,100654.41
2023-02-19T08:54:37.174Z,100648.08
2023-02-19T17:53:36.202Z,100248.32
2023-02-19T17:56:05.363Z,100251.59
2023-02-19T17:58:35.017Z,100263.17
2023-02-19T18:01:03.746Z,100264.69
2023-02-19T18:03:32.390Z,100267.01
2023-02-19T18:06:01.039Z,100268.05
2023-02-19T18:08:36.166Z,100270.42
2023-02-19T18:11:08.036Z,100274.34
2023-02-19T18:13:36.931Z,100289.91
2023-02-19T18:16:06.542Z,100335.05
2023-02-19T18:18:35.110Z,100348.15
2023-02-19T18:21:04.937Z,100351.19
2023-02-19T18:23:33.696Z,100357.21
2023-02-19T18:26:02.745Z,100357.00
2023-02-19T18:28:31.476Z,100360.72
2023-02-19T18:31:17.334Z,100362.38
2023-02-19T18:34:21.812Z,100372.20
2023-02-19T18:37:05.621Z,100380.61
2023-02-19T18:39:41.934Z,100391.55
2023-02-19T18:42:28.965Z,100395.98
2023-02-19T18:45:42.775Z,100404.61
2023-02-19T18:48:33.979Z,100405.20
2023-02-19T18:51:16.168Z,100405.70
2023-02-19T18:53:52.730Z,100408.20
2023-02-19T18:56:33.567Z,100415.42
2023-02-19T18:59:13.489Z,100418.11
2023-02-19T19:01:48.802Z,100436.43
2023-02-19T19:04:24.407Z,100444.77
2023-02-19T19:07:23.099Z,100452.15
2023-02-19T19:09:59.828Z,100456.64
2023-02-19T19:13:23.919Z,100475.51
2023-02-19T19:15:57.075Z,100496.63
2023-02-19T19:18:27.967Z,100505.16
2023-02-19T19:21:32.617Z,100535.54
2023-02-19T19:24:17.225Z,100547.23
2023-02-19T19:26:51.980Z,100557.08
2023-02-19T19:29:22.516Z,100569.95
2023-02-19T19:31:52.882Z,100573.48
2023-02-19T19:34:23.746Z,100578.92
2023-02-19T19:36:52.952Z,100586.50
2023-02-19T19:39:21.484Z,100595.02
2023-02-19T19:42:15.363Z,100603.11
2023-02-19T19:45:00.000Z,100606.48
2023-02-19T19:47:32.585Z,100616.30
2023-02-19T19:50:01.488Z,100613.02
2023-02-19T19:52:30.181Z,100630.20
2023-02-19T19:55:00.997Z,100642.00
2023-02-19T19:57:29.717Z,100648.59
2023-02-19T19:59:58.387Z,100661.80
2023-02-19T20:02:32.599Z,100674.48
2023-02-19T20:05:11.239Z,100682.72
2023-02-19T20:07:58.549Z,100706.34
2023-02-19T20:10:45.444Z,100716.08
2023-02-19T20:13:25.822Z,100726.17
2023-02-19T20:16:11.647Z,100727.92
2023-02-19T20:18:48.903Z,100738.42
2023-02-19T20:21:20.191Z,100753.69
2023-02-19T20:23:48.817Z,100752.13
2023-02-19T20:26:27.083Z,100770.91
2023-02-19T20:28:56.811Z,100771.65
2023-02-19T20:31:25.734Z,100770.45
2023-02-19T20:33:54.409Z,100766.58
2023-02-19T20:36:28.927Z,100771.02
2023-02-19T20:38:57.638Z,100776.70
2023-02-19T20:41:27.141Z,100788.38
2023-02-19T20:43:58.614Z,100802.36
2023-02-19T20:46:31.805Z,100798.30
2023-02-19T20:49:01.109Z,100807.68
2023-02-19T20:51:31.602Z,100822.54
2023-02-19T20:54:01.013Z,100832.09
2023-02-19T20:56:30.069Z,100838.10
2023-02-19T20:58:58.940Z,100839.34
2023-02-19T21:01:28.150Z,100848.71
2023-02-19T21:03:57.103Z,100870.98
2023-02-19T21:06:25.769Z,100871.69
2023-02-19T21:08:55.989Z,100881.95
2023-02-19T21:11:25.205Z,100883.36
2023-02-19T21:13:56.863Z,100892.55
2023-02-19T21:16:30.835Z,100895.56
2023-02-19T21:19:01.399Z,100886.02
2023-02-19T21:21:31.860Z,100880.54
2023-02-19T21:24:01.425Z,100879.48
2023-02-19T21:26:38.630Z,100889.90
2023-02-19T21:29:10.995Z,100888.84
2023-02-19T21:31:43.291Z,100901.39
2023-02-19T21:34:15.275Z,100905.46
2023-02-19T21:36:44.838Z,100899.27
2023-02-19T21:39:17.153Z,100903.33
2023-02-19T21:41:45.901Z,100904.76
2023-02-19T21:44:15.154Z,100910.77
2023-02-19T21:46:44.407Z,100915.72
2023-02-19T21:49:13.330Z,100925.26
2023-02-19T21:53:55.670Z,100929.67
2023-02-19T21:56:26.299Z,100945.23
2023-02-19T21:58:54.765Z,100951.25
2023-02-19T22:01:33.805Z,100952.30
2023-02-19T22:04:02.406Z,100956.73
2023-02-19T22:06:31.913Z,100956.90
2023-02-19T22:09:01.454Z,100960.96
2023-02-19T22:11:29.970Z,100962.02
2023-02-19T22:13:58.855Z,100966.27
2023-02-19T22:16:28.810Z,100964.15
2023-02-19T22:18:59.645Z,100971.04
2023-02-19T22:21:33.866Z,100964.33
2023-02-19T22:24:03.593Z,100965.20
2023-02-19T22:26:37.422Z,100965.04
2023-02-19T22:29:07.232Z,100974.19
2023-02-19T22:31:36.305Z,100979.14
2023-02-19T22:34:05.426Z,100988.52
2023-02-19T22:36:40.579Z,100988.33
2023-02-19T22:39:18.722Z,100995.39
2023-02-19T22:41:47.937Z,100991.15
2023-02-19T22:44:16.887Z,100986.91
2023-02-19T22:46:56.082Z,100990.44
2023-02-19T22:49:25.615Z,100983.91
2023-02-19T22:51:58.831Z,100986.02
2023-02-19T22:54:27.718Z,100988.32
2023-02-19T22:56:56.586Z,100991.50
2023-02-19T22:59:25.205Z,100989.02
2023-02-19T23:01:54.619Z,100987.27
2023-02-19T23:04:25.439Z,100978.95
2023-02-19T23:06:53.988Z,100979.83
2023-02-19T23:09:29.003Z,100975.05
2023-02-19T23:12:11.298Z,100977.53
2023-02-19T23:14:39.765Z,100973.29
2023-02-19T23:17:08.606Z,100971.16
2023-02-19T23:19:38.089Z,100977.52
2023-02-19T23:22:06.967Z,100981.05
2023-02-19T23:24:35.557Z,100980.34
2023-02-19T23:27:04.106Z,100985.27
2023-02-19T23:29:32.721Z,100983.51
2023-02-19T23:32:01.290Z,100983.14
2023-02-19T23:34:29.865Z,100981.15
2023-02-19T23:37:00.409Z,100981.88
2023-02-19T23:39:29.420Z,100987.89
2023-02-19T23:41:58.440Z,100985.75
2023-02-19T23:44:27.042Z,100990.69
2023-02-19T23:46:55.592Z,100982.02
2023-02-19T23:49:24.488Z,100991.55
2023-02-19T23:51:53.096Z,100994.36
2023-02-19T23:54:21.969Z,100991.36
2023-02-19T23:56:50.478Z,100987.64
2023-02-19T23:59:19.041Z,100990.27
